Time;durP1;ratioP1;P1;durP2;ratioP2;P2;SDS_P1;SDS_P2;PMS_P1;PMS_P2;Temp;Humidity;BMP_temperature;BMP_pressure;BME280_temperature;BME280_humidity;BME280_pressure;Samples;Min_cycle;Max_cycle;Signal;HPM_P1;HPM_P2
2022/07/02 00:01:06;;;;;;;4.30;1.70;;;16.20;60.50;;;;;;5009306;28;20401;-79
2022/07/02 00:03:36;;;;;;;4.18;1.55;;;16.20;61.30;;;;;;5001160;28;20026;-79
2022/07/02 00:06:04;;;;;;;4.25;1.70;;;16.20;61.30;;;;;;5004974;28;20101;-79
2022/07/02 00:08:30;;;;;;;4.35;1.80;;;16.20;61.20;;;;;;5001442;28;20397;-79
2022/07/02 00:11:01;;;;;;;6.78;2.00;;;16.20;61.00;;;;;;5007373;28;20505;-80
2022/07/02 00:13:28;;;;;;;3.50;2.05;;;16.10;61.00;;;;;;5008521;28;20034;-79
2022/07/02 00:15:54;;;;;;;4.03;1.77;;;16.10;60.40;;;;;;4997457;28;20035;-79
2022/07/02 00:18:20;;;;;;;4.72;2.10;;;16.00;61.20;;;;;;5001234;28;20040;-80
2022/07/02 00:20:47;;;;;;;6.00;2.90;;;16.00;61.40;;;;;;5000752;28;20041;-79
2022/07/02 00:23:13;;;;;;;5.25;2.60;;;16.00;61.70;;;;;;5008053;28;20049;-79
2022/07/02 00:25:44;;;;;;;5.35;2.80;;;16.00;62.10;;;;;;5007789;28;20907;-80
2022/07/02 00:28:16;;;;;;;5.90;2.83;;;15.90;62.20;;;;;;5003137;28;20420;-80
2022/07/02 00:30:46;;;;;;;5.28;2.50;;;15.90;62.40;;;;;;4994759;28;20033;-79
2022/07/02 00:33:16;;;;;;;5.28;2.50;;;15.90;62.60;;;;;;4998469;28;20034;-79
2022/07/02 00:35:46;;;;;;;3.80;2.10;;;15.90;62.70;;;;;;5006603;28;20646;-79
2022/07/02 00:38:12;;;;;;;4.68;2.30;;;15.90;62.90;;;;;;5001201;28;20165;-79
2022/07/02 00:40:39;;;;;;;8.32;2.42;;;15.80;62.90;;;;;;4999364;28;20128;-79
2022/07/02 00:43:06;;;;;;;5.63;2.70;;;15.80;62.80;;;;;;5006440;28;20133;-80
2022/07/02 00:45:34;;;;;;;3.80;2.25;;;15.80;62.60;;;;;;4996663;28;20034;-79
2022/07/02 00:48:00;;;;;;;6.43;2.22;;;15.70;62.60;;;;;;4998207;28;20034;-79
2022/07/02 00:50:26;;;;;;;4.50;2.30;;;15.70;62.70;;;;;;5004744;28;20513;-79
2022/07/02 00:52:52;;;;;;;4.68;2.10;;;15.70;62.80;;;;;;4996111;28;20030;-79
2022/07/02 00:55:18;;;;;;;4.40;2.00;;;15.70;62.90;;;;;;5005552;28;20172;-78
2022/07/02 00:57:48;;;;;;;4.28;1.90;;;15.60;62.80;;;;;;5007634;28;20172;-79
2022/07/02 01:00:18;;;;;;;5.07;2.03;;;15.60;62.80;;;;;;5001031;28;20040;-79
2022/07/02 01:02:44;;;;;;;4.43;1.98;;;15.60;62.80;;;;;;4999482;28;20033;-79
2022/07/02 01:05:13;;;;;;;3.42;1.92;;;15.60;62.70;;;;;;5000929;28;20053;-79
2022/07/02 01:07:44;;;;;;;4.05;1.90;;;15.50;62.70;;;;;;5005313;28;20034;-79
2022/07/02 01:10:19;;;;;;;;;;;15.40;62.80;;;;;;4992824;28;20121;-79
2022/07/02 01:12:47;;;;;;;4.82;1.90;;;15.30;61.70;;;;;;4995905;28;19960;-79
2022/07/02 01:15:13;;;;;;;3.63;1.90;;;15.30;62.60;;;;;;5003459;28;20018;-79
2022/07/02 01:17:39;;;;;;;4.60;1.98;;;15.20;62.50;;;;;;5004814;28;20053;-79
2022/07/02 01:20:06;;;;;;;4.97;2.20;;;15.20;62.60;;;;;;5001849;28;20148;-79
2022/07/02 01:22:38;;;;;;;4.70;2.00;;;15.10;62.70;;;;;;5003689;28;20065;-79
2022/07/02 01:25:06;;;;;;;5.50;2.40;;;15.10;62.00;;;;;;5008121;28;20033;-79
2022/07/02 01:27:32;;;;;;;4.75;2.22;;;15.00;62.80;;;;;;5005662;28;20040;-79
2022/07/02 01:29:59;;;;;;;4.50;2.20;;;15.00;62.90;;;;;;5001629;28;20034;-79
2022/07/02 01:32:24;;;;;;;4.97;2.15;;;15.00;63.10;;;;;;4992754;28;20026;-79
2022/07/02 01:34:53;;;;;;;5.97;2.15;;;14.90;63.50;;;;;;5006390;28;20029;-79
2022/07/02 01:37:21;;;;;;;5.22;2.08;;;14.90;63.50;;;;;;4999699;28;20049;-79
2022/07/02 01:39:47;;;;;;;4.38;2.05;;;14.80;64.00;;;;;;5004787;28;20053;-79
2022/07/02 01:42:14;;;;;;;3.58;2.00;;;14.80;64.30;;;;;;4998796;28;20041;-79
2022/07/02 01:44:41;;;;;;;4.43;1.90;;;14.80;64.40;;;;;;5002467;28;20026;-79
2022/07/02 01:47:10;;;;;;;4.18;1.80;;;14.80;64.30;;;;;;5004515;28;20025;-79
2022/07/02 01:49:37;;;;;;;3.63;1.70;;;14.70;64.30;;;;;;4995628;28;20109;-79
2022/07/02 01:52:04;;;;;;;3.47;1.80;;;14.80;64.40;;;;;;5005926;28;20042;-79
2022/07/02 01:54:30;;;;;;;4.07;1.55;;;14.70;64.30;;;;;;4993030;28;20036;-79
2022/07/02 01:56:56;;;;;;;4.25;1.50;;;14.70;64.30;;;;;;5004335;28;20112;-80
2022/07/02 01:59:21;;;;;;;4.35;1.83;;;14.70;64.10;;;;;;5004217;28;20408;-80
2022/07/02 02:01:47;;;;;;;4.38;1.60;;;14.70;64.10;;;;;;5015795;28;20572;-80
2022/07/02 02:04:13;;;;;;;4.68;1.60;;;14.70;64.10;;;;;;4995518;28;20763;-80
2022/07/02 02:06:39;;;;;;;4.03;1.50;;;14.70;64.00;;;;;;5006301;28;20058;-80
2022/07/02 02:09:05;;;;;;;3.30;1.50;;;14.70;63.90;;;;;;5001787;28;20042;-79
2022/07/02 02:11:31;;;;;;;5.78;1.55;;;14.60;63.70;;;;;;4995364;28;20034;-82
2022/07/02 02:13:58;;;;;;;4.13;1.60;;;14.50;63.80;;;;;;5004589;28;20064;-79
2022/07/02 02:16:25;;;;;;;4.30;1.52;;;14.50;63.70;;;;;;5005608;28;28371;-80
2022/07/02 02:18:51;;;;;;;3.38;1.60;;;14.50;64.60;;;;;;5003871;28;20564;-79
2022/07/02 02:21:18;;;;;;;3.53;1.70;;;14.50;64.90;;;;;;4994981;28;20050;-79
2022/07/02 02:23:43;;;;;;;4.18;1.52;;;14.50;65.00;;;;;;5003486;28;20026;-80
2022/07/02 02:26:09;;;;;;;5.53;1.80;;;14.50;65.30;;;;;;4997176;28;20042;-79
2022/07/02 02:28:35;;;;;;;3.53;1.33;;;14.50;65.50;;;;;;5004132;28;20018;-79
2022/07/02 02:31:01;;;;;;;3.03;1.20;;;14.50;65.50;;;;;;5003401;28;20070;-80
2022/07/02 02:33:26;;;;;;;3.40;1.33;;;14.50;65.50;;;;;;4993915;28;20034;-80
2022/07/02 02:35:52;;;;;;;4.53;1.30;;;;;;;;;;4994394;28;20049;-80
2022/07/02 02:38:18;;;;;;;3.92;1.50;;;14.50;64.30;;;;;;4995453;28;20085;-79
2022/07/02 02:40:43;;;;;;;4.38;1.35;;;14.40;65.10;;;;;;5002045;28;20116;-79
2022/07/02 02:43:10;;;;;;;3.92;1.40;;;14.40;65.40;;;;;;5008475;28;20400;-79
2022/07/02 02:45:35;;;;;;;3.17;1.40;;;14.40;65.60;;;;;;4993071;28;20553;-79
2022/07/02 02:48:01;;;;;;;3.25;1.50;;;14.40;65.90;;;;;;5000049;28;20105;-80
2022/07/02 02:50:27;;;;;;;4.03;1.50;;;14.40;66.10;;;;;;4995087;28;20117;-80
2022/07/02 02:52:53;;;;;;;2.42;1.10;;;14.40;66.20;;;;;;5003430;28;20567;-79
2022/07/02 02:55:19;;;;;;;4.45;1.20;;;14.30;65.80;;;;;;5003349;28;20030;-79
2022/07/02 02:57:45;;;;;;;4.93;1.20;;;14.30;65.50;;;;;;5013753;28;20068;-79
2022/07/02 03:00:11;;;;;;;3.67;1.27;;;14.30;65.20;;;;;;4996203;28;20065;-79
2022/07/02 03:02:36;;;;;;;3.05;1.23;;;14.20;65.10;;;;;;4996069;28;20029;-79
2022/07/02 03:05:02;;;;;;;3.08;1.20;;;14.20;65.00;;;;;;5019707;28;20061;-79
2022/07/02 03:07:28;;;;;;;4.78;1.10;;;14.10;64.90;;;;;;5002770;28;20049;-79
2022/07/02 03:09:54;;;;;;;3.50;1.30;;;14.10;64.80;;;;;;4999423;28;20065;-79
2022/07/02 03:12:19;;;;;;;2.97;1.40;;;14.00;64.90;;;;;;4992802;28;20050;-79
2022/07/02 03:14:45;;;;;;;3.95;1.30;;;14.00;65.20;;;;;;4997947;28;20037;-80
2022/07/02 03:17:11;;;;;;;5.93;1.35;;;13.90;65.40;;;;;;4998012;28;20077;-79
2022/07/02 03:19:36;;;;;;;4.55;1.38;;;13.80;65.50;;;;;;5006392;28;20030;-79
2022/07/02 03:22:02;;;;;;;2.97;1.20;;;13.80;65.10;;;;;;5006282;28;20037;-79
2022/07/02 03:24:28;;;;;;;3.10;1.20;;;13.70;65.90;;;;;;5005484;28;20044;-79
2022/07/02 03:26:54;;;;;;;2.85;1.30;;;13.80;66.00;;;;;;5005385;28;20030;-79
2022/07/02 03:29:19;;;;;;;4.95;1.27;;;13.80;66.10;;;;;;5006885;28;20457;-79
2022/07/02 03:31:45;;;;;;;2.08;1.10;;;13.80;65.30;;;;;;5006870;28;20030;-79
2022/07/02 03:34:10;;;;;;;2.53;1.15;;;13.70;66.10;;;;;;4998310;28;20041;-79
2022/07/02 03:36:36;;;;;;;4.82;1.10;;;13.80;66.20;;;;;;5002508;28;20030;-78
2022/07/02 03:39:02;;;;;;;3.88;1.00;;;13.80;66.00;;;;;;5002369;28;20037;-79
2022/07/02 03:41:28;;;;;;;4.45;1.00;;;13.80;65.80;;;;;;5006431;28;20414;-80
2022/07/02 03:43:53;;;;;;;4.18;1.15;;;13.80;65.60;;;;;;5010954;28;20034;-79
2022/07/02 03:46:19;;;;;;;5.28;1.50;;;13.70;65.60;;;;;;5002474;28;20049;-79
2022/07/02 03:48:45;;;;;;;2.80;1.10;;;13.70;65.80;;;;;;5007665;28;20026;-79
2022/07/02 03:51:11;;;;;;;2.60;1.20;;;13.70;65.90;;;;;;5002453;28;20576;-79
2022/07/02 03:53:36;;;;;;;4.53;1.10;;;13.70;66.10;;;;;;4999918;28;20454;-79
2022/07/02 03:56:03;;;;;;;2.63;0.93;;;13.70;66.20;;;;;;5005286;28;20026;-79
2022/07/02 03:58:30;;;;;;;2.00;1.00;;;13.70;66.00;;;;;;5007925;28;20036;-79
2022/07/02 04:00:57;;;;;;;2.45;1.10;;;13.70;66.00;;;;;;4995018;28;20046;-80
2022/07/02 04:03:22;;;;;;;6.38;1.13;;;13.70;65.90;;;;;;5028634;28;20429;-80
2022/07/02 04:05:48;;;;;;;2.50;1.17;;;13.60;65.90;;;;;;5002544;28;20038;-79
2022/07/02 04:08:14;;;;;;;6.90;1.25;;;13.50;65.20;;;;;;5008377;28;20022;-80
2022/07/02 04:10:39;;;;;;;3.30;1.10;;;13.50;66.10;;;;;;5004707;28;20136;-79
2022/07/02 04:13:05;;;;;;;4.10;1.20;;;13.50;66.00;;;;;;5011285;28;20022;-79
2022/07/02 04:15:31;;;;;;;3.20;1.20;;;13.50;66.30;;;;;;4995320;28;20026;-79
2022/07/02 04:17:56;;;;;;;3.33;1.20;;;13.40;66.50;;;;;;5003064;28;20030;-77
2022/07/02 04:20:22;;;;;;;2.28;1.10;;;13.40;66.90;;;;;;5006308;28;20084;-79
2022/07/02 04:22:48;;;;;;;4.28;1.30;;;13.40;67.20;;;;;;5008380;28;20060;-79
2022/07/02 04:25:13;;;;;;;3.40;1.15;;;13.30;67.50;;;;;;5007591;28;20034;-79
2022/07/02 04:27:39;;;;;;;6.22;1.50;;;13.40;67.80;;;;;;4994356;28;20052;-79
2022/07/02 04:30:05;;;;;;;4.45;1.27;;;13.30;67.80;;;;;;5006350;28;20490;-79
2022/07/02 04:32:31;;;;;;;3.63;1.20;;;13.40;67.90;;;;;;5000855;28;20030;-79
2022/07/02 04:34:57;;;;;;;3.75;1.30;;;13.40;67.90;;;;;;5005097;28;20567;-80
2022/07/02 04:37:22;;;;;;;6.68;1.40;;;13.50;67.80;;;;;;5005117;28;20022;-79
2022/07/02 04:39:48;;;;;;;2.53;1.20;;;13.50;67.60;;;;;;5009617;28;20069;-78
2022/07/02 04:42:14;;;;;;;3.63;1.27;;;13.60;67.50;;;;;;4996984;28;20042;-79
2022/07/02 04:44:40;;;;;;;5.78;1.52;;;13.60;67.30;;;;;;5000462;28;20581;-79
2022/07/02 04:47:05;;;;;;;4.40;1.23;;;13.60;67.40;;;;;;5004041;28;20040;-79
2022/07/02 04:49:32;;;;;;;4.93;1.30;;;13.70;67.50;;;;;;4992388;28;20037;-79
2022/07/02 04:51:59;;;;;;;5.82;1.40;;;13.70;67.60;;;;;;4993707;28;20038;-78
2022/07/02 04:54:24;;;;;;;7.63;1.42;;;13.70;67.40;;;;;;5021254;28;20049;-79
2022/07/02 04:56:51;;;;;;;4.18;1.40;;;13.70;67.80;;;;;;5003725;28;20033;-79
2022/07/02 04:59:17;;;;;;;4.18;1.30;;;13.80;67.80;;;;;;5003556;28;20026;-78
2022/07/02 05:01:43;;;;;;;4.18;1.45;;;13.70;67.80;;;;;;5005077;28;20034;-82
2022/07/02 05:04:09;;;;;;;7.05;1.70;;;13.70;67.90;;;;;;5005653;28;20073;-78
2022/07/02 05:06:35;;;;;;;8.82;1.92;;;13.80;68.10;;;;;;5005400;28;20464;-78
2022/07/02 05:09:01;;;;;;;7.95;1.70;;;13.80;68.60;;;;;;5004579;28;20042;-79
2022/07/02 05:11:28;;;;;;;4.85;1.90;;;13.80;68.70;;;;;;5001803;28;20045;-80
2022/07/02 05:13:54;;;;;;;4.60;2.00;;;13.80;69.00;;;;;;5019530;28;20037;-80
2022/07/02 05:16:29;;;;;;;6.70;2.00;;;13.80;69.10;;;;;;4995747;28;20030;-80
2022/07/02 05:18:55;;;;;;;4.65;2.10;;;13.90;69.40;;;;;;5006534;28;20026;-77
2022/07/02 05:21:21;;;;;;;9.48;2.00;;;14.00;69.50;;;;;;5005420;28;20048;-83
2022/07/02 05:23:47;;;;;;;6.93;2.20;;;14.00;69.60;;;;;;5007742;28;20105;-84
2022/07/02 05:26:12;;;;;;;7.70;2.38;;;14.10;69.70;;;;;;5005012;28;20030;-83
2022/07/02 05:28:38;;;;;;;11.30;2.33;;;14.10;69.80;;;;;;5004334;28;20525;-81
2022/07/02 05:31:04;;;;;;;6.80;2.85;;;14.20;69.80;;;;;;5002731;28;20029;-81
2022/07/02 05:33:29;;;;;;;5.68;2.20;;;14.20;69.80;;;;;;5003267;28;20022;-82
2022/07/02 05:35:56;;;;;;;6.95;2.22;;;14.40;69.30;;;;;;5004160;28;20037;-82
2022/07/02 05:38:21;;;;;;;6.28;2.22;;;14.40;70.10;;;;;;5003310;28;20033;-80
2022/07/02 05:40:47;;;;;;;13.63;2.53;;;14.50;70.30;;;;;;5006005;28;20050;-79
2022/07/02 05:43:13;;;;;;;9.48;2.40;;;14.50;70.30;;;;;;5008357;28;20056;-77
2022/07/02 05:45:39;;;;;;;6.45;2.47;;;14.60;70.10;;;;;;5005558;28;20181;-81
2022/07/02 05:48:04;;;;;;;8.40;2.70;;;14.60;70.90;;;;;;5002455;28;20026;-84
2022/07/02 05:50:30;;;;;;;6.75;2.78;;;14.70;71.00;;;;;;5003618;28;20093;-80
2022/07/02 05:52:57;;;;;;;10.90;2.70;;;14.90;71.20;;;;;;5004634;28;20037;-77
2022/07/02 05:55:23;;;;;;;5.78;2.63;;;14.90;71.20;;;;;;5006671;28;20096;-80
2022/07/02 05:57:48;;;;;;;9.60;3.10;;;15.00;71.60;;;;;;5009662;28;20654;-78
2022/07/02 06:00:14;;;;;;;7.10;3.35;;;15.20;71.90;;;;;;5004962;28;20038;-81
2022/07/02 06:02:40;;;;;;;7.43;3.20;;;15.30;72.00;;;;;;5010986;28;20520;-82
2022/07/02 06:07:51;;;;;;;5.90;3.33;;;15.60;71.90;;;;;;5006623;28;20133;-79
2022/07/02 06:10:20;;;;;;;7.43;3.47;;;15.80;71.60;;;;;;5005704;28;20033;-78
2022/07/02 06:12:50;;;;;;;8.20;3.50;;;16.00;71.30;;;;;;5004097;28;20030;-78
2022/07/02 06:15:17;;;;;;;8.38;3.00;;;16.10;71.10;;;;;;5004947;28;20033;-78
2022/07/02 06:17:44;;;;;;;8.85;3.15;;;16.30;70.90;;;;;;5006914;28;20087;-86
2022/07/02 06:20:10;;;;;;;6.00;2.65;;;16.50;70.70;;;;;;5003301;28;20034;-75
2022/07/02 06:22:36;;;;;;;6.57;2.95;;;16.60;70.40;;;;;;5003474;28;20046;-78
2022/07/02 06:25:02;;;;;;;4.78;2.85;;;16.80;70.00;;;;;;5007245;28;20030;-83
2022/07/02 06:27:30;;;;;;;6.18;2.88;;;17.00;69.50;;;;;;5000949;28;20054;-78
2022/07/02 06:29:56;;;;;;;9.68;2.88;;;17.10;69.10;;;;;;5006888;28;20082;-80
2022/07/02 06:32:21;;;;;;;6.55;2.90;;;17.30;69.80;;;;;;5017231;28;20029;-77
2022/07/02 06:34:47;;;;;;;11.80;2.80;;;17.50;68.50;;;;;;5006022;28;20489;-79
2022/07/02 06:37:13;;;;;;;8.93;2.90;;;17.70;68.00;;;;;;5005286;28;20869;-79
2022/07/02 06:39:38;;;;;;;7.47;2.70;;;17.90;67.30;;;;;;5007569;28;20147;-79
2022/07/02 06:42:20;;;;;;;9.65;2.60;;;18.10;66.80;;;;;;5004663;28;20107;-79
2022/07/02 06:44:51;;;;;;;7.55;2.70;;;18.60;65.10;;;;;;5005844;28;20034;-79
2022/07/02 06:47:17;;;;;;;9.50;2.63;;;18.60;65.70;;;;;;5003973;28;20027;-79
2022/07/02 06:49:44;;;;;;;8.10;2.60;;;18.80;65.00;;;;;;5002309;28;20058;-81
2022/07/02 06:52:11;;;;;;;6.57;2.55;;;19.10;64.30;;;;;;5009231;28;20072;-80
2022/07/02 06:54:37;;;;;;;6.18;2.50;;;19.40;63.40;;;;;;4996197;28;20037;-75
2022/07/02 06:57:04;;;;;;;8.77;2.53;;;19.80;62.20;;;;;;4996957;28;20484;-77
2022/07/02 06:59:30;;;;;;;5.85;2.30;;;20.70;59.10;;;;;;4993382;28;20068;-82
2022/07/02 07:01:55;;;;;;;6.20;2.33;;;21.70;55.10;;;;;;5004165;28;20733;-79
2022/07/02 07:04:21;;;;;;;6.30;2.30;;;22.80;51.20;;;;;;5007515;28;20069;-76
2022/07/02 07:06:51;;;;;;;7.43;2.22;;;23.90;47.10;;;;;;5012696;28;20104;-78
2022/07/02 07:09:18;;;;;;;5.78;2.30;;;24.90;43.90;;;;;;5002824;28;20032;-77
2022/07/02 07:11:44;;;;;;;7.32;2.25;;;25.60;41.50;;;;;;5005900;28;20033;-80
2022/07/02 07:14:10;;;;;;;6.80;2.10;;;26.20;40.00;;;;;;5013412;28;20021;-82
2022/07/02 07:16:36;;;;;;;6.40;2.38;;;26.70;38.80;;;;;;5008666;28;20084;-82
2022/07/02 07:19:04;;;;;;;5.95;2.22;;;27.10;38.00;;;;;;5008411;28;20374;-84
2022/07/02 07:21:33;;;;;;;6.45;2.20;;;27.40;37.20;;;;;;5001469;28;20472;-78
2022/07/02 07:23:59;;;;;;;10.48;2.20;;;27.80;36.30;;;;;;5012007;28;20050;-76
2022/07/02 07:26:25;;;;;;;6.00;1.80;;;28.10;35.50;;;;;;5008555;28;20464;-85
2022/07/02 07:28:51;;;;;;;7.88;1.90;;;28.50;34.90;;;;;;5009919;28;20105;-90
2022/07/02 07:31:20;;;;;;;5.13;1.90;;;29.20;32.70;;;;;;5003714;28;20101;-82
2022/07/02 07:33:50;;;;;;;5.63;1.67;;;29.20;33.40;;;;;;5006533;28;20068;-82
2022/07/02 07:36:18;;;;;;;9.15;1.90;;;29.50;32.60;;;;;;5003869;28;20516;-83
2022/07/02 07:38:44;;;;;;;6.35;1.70;;;29.90;32.40;;;;;;5004263;28;20076;-84
2022/07/02 07:41:10;;;;;;;5.03;1.60;;;30.20;31.90;;;;;;5006458;28;20046;-84
2022/07/02 07:43:36;;;;;;;8.15;1.48;;;30.40;31.90;;;;;;5005175;28;20025;-83
2022/07/02 07:46:02;;;;;;;4.78;1.20;;;30.40;30.60;;;;;;4996490;28;20026;-81
2022/07/02 07:48:28;;;;;;;7.30;1.50;;;30.10;31.00;;;;;;5022340;28;20033;-82
2022/07/02 07:50:53;;;;;;;6.00;1.50;;;29.60;31.60;;;;;;5010138;28;20132;-81
2022/07/02 07:53:19;;;;;;;5.85;1.30;;;29.10;32.50;;;;;;5010041;28;20420;-81
2022/07/02 07:55:46;;;;;;;5.75;1.30;;;28.50;33.70;;;;;;5028345;28;20508;-82
2022/07/02 07:58:12;;;;;;;7.35;1.33;;;27.90;35.30;;;;;;5001788;28;20556;-81
2022/07/02 08:00:38;;;;;;;5.78;1.33;;;26.90;36.90;;;;;;4995285;28;20023;-82
2022/07/02 08:03:03;;;;;;;3.50;1.15;;;26.80;37.60;;;;;;5011919;28;20111;-82
2022/07/02 08:05:29;;;;;;;5.85;1.25;;;26.50;38.00;;;;;;5002861;28;20036;-82
2022/07/02 08:07:55;;;;;;;3.72;0.95;;;26.30;38.10;;;;;;5014592;28;20033;-76
2022/07/02 08:10:21;;;;;;;4.88;1.00;;;26.20;38.40;;;;;;5007200;28;20021;-79
2022/07/02 08:12:48;;;;;;;4.47;0.85;;;26.20;37.90;;;;;;5005135;28;20029;-82
2022/07/02 08:15:14;;;;;;;5.43;0.90;;;26.10;37.80;;;;;;4997906;28;20081;-82
2022/07/02 08:17:39;;;;;;;4.88;1.10;;;26.10;37.70;;;;;;4993336;28;20034;-81
2022/07/02 08:20:07;;;;;;;5.88;1.40;;;26.00;37.60;;;;;;4995396;28;20052;-81
2022/07/02 08:22:34;;;;;;;7.22;1.80;;;26.00;37.30;;;;;;4995115;28;20041;-81
2022/07/02 08:25:00;;;;;;;6.93;1.98;;;25.90;37.40;;;;;;5007532;28;20068;-81
2022/07/02 08:27:25;;;;;;;8.25;2.20;;;25.80;37.60;;;;;;4996099;28;20073;-81
2022/07/02 08:29:52;;;;;;;6.97;2.50;;;25.80;37.10;;;;;;4995354;28;20042;-81
2022/07/02 08:32:18;;;;;;;6.32;2.35;;;25.80;37.80;;;;;;4995255;28;20386;-81
2022/07/02 08:34:43;;;;;;;5.45;1.80;;;25.80;37.80;;;;;;4992169;28;20037;-82
2022/07/02 08:37:09;;;;;;;5.03;1.63;;;25.80;36.60;;;;;;5010765;28;20056;-81
2022/07/02 08:39:35;;;;;;;4.32;1.33;;;25.80;37.40;;;;;;4995410;28;20022;-82
2022/07/02 08:42:01;;;;;;;4.47;1.20;;;25.80;37.20;;;;;;4994300;28;20042;-81
2022/07/02 08:44:28;;;;;;;3.47;0.98;;;25.90;37.60;;;;;;4994884;28;20018;-81
2022/07/02 08:46:55;;;;;;;5.22;0.90;;;26.00;36.90;;;;;;5003474;28;20065;-82
2022/07/02 08:49:21;;;;;;;3.50;0.90;;;26.10;36.90;;;;;;4994365;28;20417;-81
2022/07/02 08:52:02;;;;;;;3.97;0.85;;;26.20;36.70;;;;;;4996307;28;20034;-82
2022/07/02 08:54:28;;;;;;;5.95;0.80;;;26.40;36.00;;;;;;4996279;28;20072;-81
2022/07/02 08:56:54;;;;;;;3.65;0.77;;;26.50;35.10;;;;;;5007344;28;20057;-82
2022/07/02 08:59:20;;;;;;;4.07;0.70;;;26.80;34.50;;;;;;5004706;28;20022;-81
2022/07/02 09:01:48;;;;;;;2.83;0.73;;;26.90;34.00;;;;;;5004278;28;20044;-77
2022/07/02 09:04:14;;;;;;;3.13;0.75;;;27.00;33.90;;;;;;5001842;28;20021;-77
2022/07/02 09:06:41;;;;;;;2.38;0.70;;;27.00;33.90;;;;;;5008040;28;20105;-78
2022/07/02 09:09:09;;;;;;;4.50;0.70;;;27.20;34.30;;;;;;5000182;28;20104;-75
2022/07/02 09:11:35;;;;;;;3.47;0.80;;;27.30;33.80;;;;;;4993424;28;20111;-77
2022/07/02 09:14:02;;;;;;;2.78;0.60;;;27.50;33.30;;;;;;5005674;28;20076;-76
2022/07/02 09:16:28;;;;;;;3.28;0.75;;;27.70;32.00;;;;;;5003593;28;20026;-77
2022/07/02 09:18:54;;;;;;;2.70;0.70;;;28.10;30.00;;;;;;5009892;28;20022;-75
2022/07/02 09:21:20;;;;;;;2.83;0.60;;;28.40;29.20;;;;;;5005464;28;20408;-76
2022/07/02 09:23:48;;;;;;;3.15;0.60;;;28.80;29.20;;;;;;5002311;28;20073;-76
2022/07/02 09:26:21;;;;;;;3.60;0.60;;;30.20;27.20;;;;;;5002110;28;20060;-76
2022/07/02 09:28:59;;;;;;;4.45;0.93;;;30.30;27.60;;;;;;5007680;28;20109;-75
2022/07/02 09:31:29;;;;;;;4.40;0.70;;;31.30;25.70;;;;;;5003984;28;20057;-76
2022/07/02 09:33:56;;;;;;;4.03;0.70;;;32.40;24.90;;;;;;5008162;28;20109;-77
2022/07/02 09:36:23;;;;;;;3.35;0.70;;;33.20;23.60;;;;;;5004874;28;20065;-77
2022/07/02 09:38:53;;;;;;;3.45;0.60;;;33.80;23.40;;;;;;5004069;28;20034;-75
2022/07/02 09:41:23;;;;;;;4.28;0.63;;;34.30;22.70;;;;;;5002479;28;20046;-76
2022/07/02 09:43:59;;;;;;;3.70;0.75;;;34.80;22.30;;;;;;5005948;28;20061;-76
2022/07/02 09:46:25;;;;;;;3.10;0.70;;;35.30;22.30;;;;;;5007625;28;20543;-76
2022/07/02 09:48:52;;;;;;;3.33;0.80;;;35.70;21.70;;;;;;5009799;28;20073;-76
2022/07/02 09:51:18;;;;;;;3.55;0.63;;;36.00;21.60;;;;;;4995478;28;20038;-75
2022/07/02 09:53:51;;;;;;;3.88;0.77;;;36.40;21.20;;;;;;5000563;28;20397;-76
2022/07/02 09:56:21;;;;;;;3.00;0.63;;;36.90;21.10;;;;;;5002682;28;20502;-76
2022/07/02 09:58:48;;;;;;;4.13;0.70;;;37.20;20.80;;;;;;5005015;28;20057;-77
2022/07/02 10:01:18;;;;;;;2.78;0.60;;;37.60;20.80;;;;;;5005808;28;20053;-76
2022/07/02 10:03:56;;;;;;;3.88;0.77;;;38.00;21.20;;;;;;5000798;28;20443;-76
2022/07/02 10:06:22;;;;;;;2.78;0.70;;;38.50;19.70;;;;;;5007299;28;20030;-76
2022/07/02 10:08:48;;;;;;;2.42;0.57;;;38.90;19.40;;;;;;5005495;28;20021;-76
2022/07/02 10:11:15;;;;;;;3.95;0.77;;;39.20;19.10;;;;;;5007700;28;20103;-75
2022/07/02 10:13:42;;;;;;;3.05;0.80;;;39.50;18.50;;;;;;5002709;28;20022;-76
2022/07/02 10:16:17;;;;;;;2.97;0.70;;;40.00;17.70;;;;;;5013657;28;20025;-76
2022/07/02 10:18:44;;;;;;;3.13;0.75;;;40.00;18.30;;;;;;5002600;28;20026;-78
2022/07/02 10:21:14;;;;;;;3.63;0.65;;;40.20;18.00;;;;;;5004165;28;20133;-79
2022/07/02 10:23:42;;;;;;;2.72;0.57;;;40.00;17.60;;;;;;5005830;28;20413;-76
2022/07/02 10:26:10;;;;;;;7.35;3.05;;;39.40;17.70;;;;;;5005215;28;20080;-79
2022/07/02 10:28:36;;;;;;;2.55;0.63;;;39.40;17.90;;;;;;5003719;28;20045;-79
2022/07/02 10:31:05;;;;;;;1.23;0.47;;;39.40;17.50;;;;;;5004890;28;20049;-80
2022/07/02 10:34:08;;;;;;;2.42;0.60;;;39.30;17.00;;;;;;4994469;28;20062;-76
2022/07/02 10:36:34;;;;;;;4.45;0.77;;;39.50;16.50;;;;;;5003947;28;20092;-78
2022/07/02 10:39:02;;;;;;;3.70;0.68;;;39.50;17.10;;;;;;5006210;28;20565;-78
2022/07/02 10:41:30;;;;;;;2.92;0.70;;;39.40;17.10;;;;;;5018392;28;20468;-76
2022/07/02 10:43:58;;;;;;;;;;;39.40;17.30;;;;;;5006008;28;20497;-76
2022/07/02 10:46:26;;;;;;;2.90;0.70;;;39.70;17.60;;;;;;5012218;28;19920;-78
2022/07/02 10:48:54;;;;;;;3.85;0.80;;;39.80;17.60;;;;;;5023032;28;20037;-76
2022/07/02 10:51:23;;;;;;;3.85;0.70;;;40.30;16.70;;;;;;5004965;28;20040;-78
2022/07/02 10:53:57;;;;;;;3.28;0.70;;;40.50;16.70;;;;;;5005856;28;20819;-76
2022/07/02 10:56:23;;;;;;;3.22;0.68;;;40.10;16.90;;;;;;5003415;28;20109;-75
2022/07/02 10:58:50;;;;;;;2.83;0.60;;;40.30;16.80;;;;;;5007715;28;20124;-79
2022/07/02 11:01:18;;;;;;;3.10;0.70;;;41.20;19.00;;;;;;4992295;28;20088;-77
2022/07/02 11:03:51;;;;;;;3.42;0.70;;;40.80;16.10;;;;;;5032174;28;20030;-77
2022/07/02 11:06:32;;;;;;;3.40;0.68;;;41.20;16.00;;;;;;5004982;28;20041;-77
2022/07/02 11:09:04;;;;;;;3.65;0.80;;;41.40;16.50;;;;;;5005501;28;20503;-74
2022/07/02 11:11:34;;;;;;;4.47;0.80;;;41.80;16.20;;;;;;5006657;28;20405;-78
2022/07/02 11:14:07;;;;;;;2.08;0.50;;;42.10;16.60;;;;;;5011895;28;20029;-74
2022/07/02 11:16:48;;;;;;;5.70;0.60;;;42.20;15.90;;;;;;5005918;28;20401;-76
2022/07/02 11:19:19;;;;;;;3.80;0.70;;;42.50;15.80;;;;;;5007917;28;20026;-77
2022/07/02 11:21:55;;;;;;;2.92;0.70;;;42.90;15.00;;;;;;5019367;28;20045;-75
2022/07/02 11:24:25;;;;;;;2.80;0.68;;;42.90;15.50;;;;;;5004277;28;20480;-77
2022/07/02 11:26:52;;;;;;;3.60;0.60;;;42.90;15.60;;;;;;5005656;28;20033;-77
2022/07/02 11:29:18;;;;;;;2.97;0.63;;;43.00;15.70;;;;;;5008465;28;20393;-76
2022/07/02 11:31:51;;;;;;;3.42;0.70;;;43.20;15.40;;;;;;5006777;28;20022;-77
2022/07/02 11:34:24;;;;;;;7.28;0.80;;;43.30;15.00;;;;;;5020536;28;20040;-78
2022/07/02 11:36:51;;;;;;;3.25;0.60;;;43.30;14.60;;;;;;5009868;28;20512;-77
2022/07/02 11:39:22;;;;;;;3.80;0.80;;;43.30;14.70;;;;;;5008897;28;20030;-77
2022/07/02 11:41:49;;;;;;;3.63;0.60;;;43.00;15.30;;;;;;5008484;28;20045;-77
2022/07/02 11:44:15;;;;;;;2.63;0.55;;;42.90;14.80;;;;;;5015604;28;20024;-77
2022/07/02 11:46:42;;;;;;;3.65;0.73;;;42.80;15.30;;;;;;5019816;28;20033;-77
2022/07/02 11:49:20;;;;;;;2.80;0.60;;;41.70;15.20;;;;;;5012690;28;20479;-76
2022/07/02 11:51:46;;;;;;;6.70;0.60;;;41.30;16.20;;;;;;5010461;28;20033;-77
2022/07/02 11:54:13;;;;;;;3.58;0.57;;;41.60;16.10;;;;;;5013203;28;20032;-77
2022/07/02 11:56:40;;;;;;;2.45;0.40;;;42.10;16.00;;;;;;5012454;28;20034;-76
2022/07/02 11:59:11;;;;;;;2.75;0.50;;;42.60;15.50;;;;;;5007957;28;20026;-77
2022/07/02 12:01:39;;;;;;;5.30;0.85;;;43.40;13.90;;;;;;5011720;28;20517;-80
2022/07/02 12:04:08;;;;;;;3.53;0.65;;;43.30;14.50;;;;;;5014041;28;20034;-77
2022/07/02 12:06:36;;;;;;;;;;;42.70;14.80;;;;;;5017006;28;20462;-77
2022/07/02 12:09:06;;;;;;;2.55;0.70;;;40.00;16.90;;;;;;5007244;28;19984;-77
2022/07/02 12:11:33;;;;;;;5.05;0.90;;;38.40;18.30;;;;;;5017910;28;20040;-75
2022/07/02 12:13:59;;;;;;;4.72;0.80;;;37.60;18.90;;;;;;5011826;28;20057;-74
2022/07/02 12:16:26;;;;;;;8.80;1.00;;;38.20;18.70;;;;;;5012559;28;20026;-76
2022/07/02 12:19:06;;;;;;;12.40;1.52;;;39.30;17.80;;;;;;5010905;28;20033;-75
2022/07/02 12:21:43;;;;;;;9.07;1.15;;;40.20;17.70;;;;;;5015830;28;20041;-76
2022/07/02 12:24:27;;;;;;;169.68;9.20;;;40.80;17.00;;;;;;5007667;28;20409;-75
2022/07/02 12:27:01;;;;;;;7.75;0.90;;;41.60;16.50;;;;;;5003896;28;20034;-75
2022/07/02 12:29:54;;;;;;;8.90;1.00;;;42.10;15.10;;;;;;5000197;28;20048;-75
2022/07/02 12:32:28;;;;;;;22.40;2.20;;;41.90;15.30;;;;;;5009167;28;20034;-76
2022/07/02 12:34:59;;;;;;;112.90;7.18;;;41.00;16.30;;;;;;5004837;28;20049;-75
2022/07/02 12:37:57;;;;;;;6.07;0.70;;;40.40;17.10;;;;;;5007891;28;20030;-75
2022/07/02 12:40:23;;;;;;;2.80;0.60;;;40.80;16.70;;;;;;5023805;28;20060;-74
2022/07/02 12:42:51;;;;;;;5.18;0.82;;;40.60;17.20;;;;;;5023435;28;20041;-75
2022/07/02 12:45:33;;;;;;;9.02;0.80;;;39.90;17.90;;;;;;5014249;28;20105;-74
2022/07/02 12:48:01;;;;;;;11.45;1.08;;;40.60;17.30;;;;;;5019584;28;20959;-74
2022/07/02 12:50:29;;;;;;;20.77;1.98;;;41.20;16.80;;;;;;5020623;28;20552;-75
2022/07/02 12:53:00;;;;;;;6.75;1.08;;;41.60;16.30;;;;;;5021985;28;20122;-75